createdAt,value
2017-05-26T00:00:20.532Z,13.41
2017-05-26T00:01:34.930Z,13.4
2017-05-26T00:02:50.422Z,13.4
2017-05-26T00:04:04.401Z,13.41
2017-05-26T00:05:18.479Z,13.34
2017-05-26T00:06:34.220Z,13.36
2017-05-26T00:07:48.329Z,13.34
2017-05-26T00:09:04.097Z,13.36
2017-05-26T00:10:19.485Z,13.31
2017-05-26T00:11:35.171Z,13.26
2017-05-26T00:12:50.630Z,13.23
2017-05-26T00:14:04.802Z,13.29
2017-05-26T00:15:17.715Z,13.21
2017-05-26T00:16:32.042Z,13.26
2017-05-26T00:17:47.752Z,13.13
2017-05-26T00:19:02.807Z,13.19
2017-05-26T00:20:18.558Z,13.09
2017-05-26T00:21:34.231Z,13.13
2017-05-26T00:22:48.365Z,13.11
2017-05-26T00:24:03.808Z,13.04
2017-05-26T00:25:17.739Z,13.09
2017-05-26T00:26:33.448Z,13.11
2017-05-26T00:27:49.099Z,13.03
2017-05-26T00:29:04.490Z,13.01
2017-05-26T00:30:19.986Z,13.04
2017-05-26T00:31:35.465Z,12.92
2017-05-26T00:32:49.840Z,12.97
2017-05-26T00:34:05.256Z,12.96
2017-05-26T00:35:20.672Z,13.03
2017-05-26T00:36:36.099Z,12.92
2017-05-26T00:37:50.202Z,12.95
2017-05-26T00:39:05.675Z,12.89
2017-05-26T00:40:21.177Z,12.89
2017-05-26T00:41:37.004Z,12.84
2017-05-26T00:42:51.340Z,12.82
2017-05-26T00:44:06.752Z,12.84
2017-05-26T00:45:20.748Z,12.82
2017-05-26T00:46:36.216Z,12.78
2017-05-26T00:47:51.826Z,12.82
2017-05-26T00:49:05.974Z,12.85
2017-05-26T00:50:20.103Z,12.77
2017-05-26T00:51:35.830Z,12.8
2017-05-26T00:52:51.344Z,12.82
2017-05-26T00:54:05.768Z,12.84
2017-05-26T00:55:21.163Z,12.81
2017-05-26T00:56:36.643Z,12.75
2017-05-26T00:57:52.059Z,12.74
2017-05-26T00:59:06.176Z,12.71
2017-05-26T01:00:21.646Z,12.8
2017-05-26T01:01:35.745Z,12.63
2017-05-26T01:02:51.460Z,12.64
2017-05-26T01:04:06.864Z,12.62
2017-05-26T01:05:22.317Z,12.62
2017-05-26T01:06:38.018Z,12.6
2017-05-26T01:07:53.639Z,12.59
2017-05-26T01:09:07.668Z,12.62
2017-05-26T01:10:21.700Z,12.62
2017-05-26T01:11:37.180Z,12.53
2017-05-26T01:12:51.378Z,12.62
2017-05-26T01:14:06.840Z,12.55
2017-05-26T01:15:20.947Z,12.56
2017-05-26T01:16:34.942Z,12.57
2017-05-26T01:17:50.395Z,12.56
2017-05-26T01:19:06.026Z,12.45
2017-05-26T01:20:21.461Z,12.55
2017-05-26T01:21:36.898Z,12.47
2017-05-26T01:22:51.014Z,12.5
2017-05-26T01:24:05.372Z,12.44
2017-05-26T01:25:20.781Z,12.45
2017-05-26T01:26:36.197Z,12.44
2017-05-26T01:27:51.654Z,12.42
2017-05-26T01:29:07.549Z,12.47
2017-05-26T01:30:22.988Z,12.53
2017-05-26T01:31:38.476Z,12.44
2017-05-26T01:32:53.863Z,12.39
2017-05-26T01:34:08.420Z,12.41
2017-05-26T01:35:23.867Z,12.37
2017-05-26T01:36:38.957Z,12.42
2017-05-26T01:37:54.418Z,12.42
2017-05-26T01:39:10.091Z,12.41
2017-05-26T01:40:25.472Z,12.34
2017-05-26T01:41:40.958Z,12.39
2017-05-26T01:42:56.059Z,12.38
2017-05-26T01:44:11.690Z,12.34
2017-05-26T01:45:26.697Z,12.31
2017-05-26T01:46:42.142Z,12.24
2017-05-26T01:47:57.769Z,12.23
2017-05-26T01:49:13.405Z,12.23
2017-05-26T01:50:28.820Z,12.23
2017-05-26T01:51:44.284Z,12.22
2017-05-26T01:52:58.644Z,12.27
2017-05-26T01:54:14.343Z,12.27
2017-05-26T01:55:29.826Z,12.2
2017-05-26T01:56:45.275Z,12.26
2017-05-26T01:58:00.690Z,12.22
2017-05-26T01:59:15.041Z,12.22
2017-05-26T02:00:26.501Z,12.19
2017-05-26T02:01:42.052Z,12.2
2017-05-26T02:02:56.134Z,12.19
2017-05-26T02:04:10.457Z,12.2
2017-05-26T02:05:24.483Z,12.22
2017-05-26T02:06:38.868Z,12.23
2017-05-26T02:07:54.322Z,12.19
2017-05-26T02:09:10.184Z,12.16
2017-05-26T02:10:25.567Z,12.05
2017-05-26T02:11:40.948Z,12.17
2017-05-26T02:12:54.938Z,12.08
2017-05-26T02:14:09.240Z,12.13
2017-05-26T02:15:24.631Z,12.11
2017-05-26T02:16:40.071Z,12.02
2017-05-26T02:17:55.513Z,12.09
2017-05-26T02:19:11.328Z,12.01
2017-05-26T02:20:26.743Z,12.09
2017-05-26T02:21:42.198Z,12.04
2017-05-26T02:22:57.667Z,12.07
2017-05-26T02:24:13.295Z,12.11
2017-05-26T02:25:28.736Z,11.98
2017-05-26T02:26:44.124Z,12.05
2017-05-26T02:27:59.789Z,11.97
2017-05-26T02:29:15.416Z,11.99
2017-05-26T02:30:30.826Z,11.89
2017-05-26T02:31:44.959Z,11.89
2017-05-26T02:33:00.472Z,11.89
2017-05-26T02:34:13.358Z,11.9
2017-05-26T02:35:28.953Z,11.87
2017-05-26T02:36:43.088Z,11.94
2017-05-26T02:37:57.202Z,11.91
2017-05-26T02:39:12.656Z,11.87
2017-05-26T02:40:27.010Z,11.87
2017-05-26T02:41:41.017Z,11.89
2017-05-26T02:42:56.430Z,11.77
2017-05-26T02:44:11.844Z,11.79
2017-05-26T02:45:27.472Z,11.74
2017-05-26T02:46:42.963Z,11.71
2017-05-26T02:47:58.399Z,11.68
2017-05-26T02:49:12.625Z,11.65
2017-05-26T02:50:26.932Z,11.62
2017-05-26T02:51:42.005Z,11.58
2017-05-26T02:52:57.389Z,11.59
2017-05-26T02:54:11.519Z,11.64
2017-05-26T02:55:25.800Z,11.64
2017-05-26T02:56:41.242Z,11.58
2017-05-26T02:57:55.103Z,11.61
2017-05-26T02:59:10.522Z,11.64
2017-05-26T03:00:26.179Z,11.62
2017-05-26T03:01:41.894Z,11.65
2017-05-26T03:02:57.342Z,11.62
2017-05-26T03:04:12.775Z,11.65
2017-05-26T03:05:28.382Z,11.68
2017-05-26T03:06:43.862Z,11.69
2017-05-26T03:07:59.337Z,11.76
2017-05-26T03:09:14.840Z,11.82
2017-05-26T03:10:30.470Z,11.8
2017-05-26T03:11:45.924Z,11.83
2017-05-26T03:13:01.553Z,11.83
2017-05-26T03:14:17.002Z,11.74
2017-05-26T03:15:31.175Z,11.76
2017-05-26T03:16:46.219Z,11.74
2017-05-26T03:18:01.610Z,11.8
2017-05-26T03:19:15.682Z,11.68
2017-05-26T03:20:31.358Z,11.65
2017-05-26T03:21:46.852Z,11.62
2017-05-26T03:23:02.258Z,11.62
2017-05-26T03:24:17.671Z,11.61
2017-05-26T03:25:33.557Z,11.62
2017-05-26T03:26:49.086Z,11.53
2017-05-26T03:28:02.820Z,11.59
2017-05-26T03:29:18.201Z,11.59
2017-05-26T03:30:33.833Z,11.59
2017-05-26T03:31:46.721Z,11.64
2017-05-26T03:33:33.007Z,11.49
2017-05-26T03:34:48.493Z,11.53
2017-05-26T03:36:04.081Z,11.62
2017-05-26T03:37:19.534Z,11.71
2017-05-26T03:38:34.965Z,11.71
2017-05-26T03:39:50.415Z,11.72
2017-05-26T03:41:06.080Z,11.74
2017-05-26T03:42:20.103Z,11.69
2017-05-26T03:43:35.508Z,11.68
2017-05-26T03:44:50.913Z,11.66
2017-05-26T03:46:06.793Z,11.69
2017-05-26T03:47:22.227Z,11.8
2017-05-26T03:48:37.700Z,11.8
2017-05-26T03:49:52.050Z,11.83
2017-05-26T03:51:06.393Z,11.77
2017-05-26T03:52:20.633Z,11.84
2017-05-26T03:53:36.108Z,11.8
2017-05-26T03:54:50.215Z,11.9
2017-05-26T03:56:05.912Z,11.83
2017-05-26T03:57:21.370Z,11.87
2017-05-26T03:58:34.210Z,11.89
2017-05-26T03:59:48.279Z,11.97
2017-05-26T04:01:03.762Z,11.9
2017-05-26T04:02:19.491Z,11.86
2017-05-26T04:03:34.986Z,12.04
2017-05-26T04:04:49.319Z,11.97
2017-05-26T04:06:04.762Z,11.89
2017-05-26T04:07:20.569Z,11.86
2017-05-26T04:08:36.000Z,11.91
2017-05-26T04:09:50.130Z,11.95
2017-05-26T04:11:05.545Z,11.89
2017-05-26T04:12:19.969Z,11.91
2017-05-26T04:13:35.419Z,11.91
2017-05-26T04:14:48.093Z,11.95
2017-05-26T04:16:03.511Z,12.05
2017-05-26T04:17:19.209Z,11.9
2017-05-26T04:18:34.688Z,11.98
2017-05-26T04:19:50.125Z,11.91
2017-05-26T04:21:05.537Z,11.95
2017-05-26T04:22:21.201Z,11.98
2017-05-26T04:23:36.625Z,11.95
2017-05-26T04:24:52.037Z,11.98
2017-05-26T04:26:06.146Z,11.98
2017-05-26T04:27:19.163Z,11.97
2017-05-26T04:28:34.519Z,11.94
2017-05-26T04:29:48.586Z,11.89
2017-05-26T04:31:03.969Z,11.89
2017-05-26T04:32:19.633Z,11.89
2017-05-26T04:33:33.757Z,12.04
2017-05-26T04:34:49.258Z,11.86
2017-05-26T04:36:05.050Z,11.89
2017-05-26T04:37:20.693Z,11.94
2017-05-26T04:38:34.816Z,11.95
2017-05-26T04:39:50.170Z,11.99
2017-05-26T04:41:04.133Z,12.05
2017-05-26T04:42:19.869Z,11.98
2017-05-26T04:43:35.411Z,12.04
2017-05-26T04:44:50.857Z,12.02
2017-05-26T04:46:04.886Z,11.99
2017-05-26T04:47:20.832Z,11.99
2017-05-26T04:48:34.848Z,12.05
2017-05-26T04:49:50.267Z,12.09
2017-05-26T04:51:05.776Z,12.09
2017-05-26T04:52:21.660Z,12.04
2017-05-26T04:53:37.328Z,11.98
2017-05-26T04:54:52.746Z,12.04
2017-05-26T04:56:08.098Z,12.05
2017-05-26T04:57:23.708Z,12.05
2017-05-26T04:58:37.676Z,12.04
2017-05-26T04:59:51.802Z,12.08
2017-05-26T05:01:07.252Z,12.02
2017-05-26T05:02:22.690Z,12.07
2017-05-26T05:03:38.348Z,12.07
2017-05-26T05:04:53.824Z,12.04
2017-05-26T05:06:09.605Z,12.05
2017-05-26T05:07:22.413Z,12.07
2017-05-26T05:08:38.135Z,12.07
2017-05-26T05:09:52.404Z,12.05
2017-05-26T05:11:06.713Z,12.16
2017-05-26T05:12:20.895Z,12.08
2017-05-26T05:13:35.242Z,12.05
2017-05-26T05:14:48.034Z,12.09
2017-05-26T05:16:03.707Z,12.04
2017-05-26T05:17:19.276Z,12.07
2017-05-26T05:18:32.146Z,12.05
2017-05-26T05:19:47.854Z,12.05
2017-05-26T05:21:01.979Z,12.16
2017-05-26T05:22:17.401Z,12.05
2017-05-26T05:23:33.238Z,12.08
2017-05-26T05:24:46.056Z,12.13
2017-05-26T05:26:01.498Z,12.08
2017-05-26T05:27:16.929Z,12.08
2017-05-26T05:28:30.704Z,12.05
2017-05-26T05:29:46.323Z,12.15
2017-05-26T05:31:02.061Z,12.24
2017-05-26T05:32:17.501Z,12.17
2017-05-26T05:33:32.957Z,12.2
2017-05-26T05:34:47.318Z,12.26
2017-05-26T05:36:01.262Z,12.13
2017-05-26T05:37:16.684Z,12.13
2017-05-26T05:38:30.702Z,12.24
2017-05-26T05:39:46.346Z,12.24
2017-05-26T05:41:02.148Z,12.32
2017-05-26T05:42:17.658Z,12.27
2017-05-26T05:43:33.047Z,12.29
2017-05-26T05:44:47.440Z,12.29
2017-05-26T05:46:03.090Z,12.27
2017-05-26T05:47:18.520Z,12.32
2017-05-26T05:48:33.975Z,12.29
2017-05-26T05:49:49.592Z,12.31
2017-05-26T05:51:05.057Z,12.38
2017-05-26T05:52:20.641Z,12.38
2017-05-26T05:53:34.790Z,12.37
2017-05-26T05:54:50.431Z,12.44
2017-05-26T05:56:05.873Z,12.44
2017-05-26T05:57:19.628Z,12.44
2017-05-26T05:58:35.477Z,12.34
2017-05-26T05:59:49.856Z,12.42
2017-05-26T06:01:05.327Z,12.44
2017-05-26T06:02:19.479Z,12.37
2017-05-26T06:03:34.892Z,12.42
2017-05-26T06:04:48.860Z,12.52
2017-05-26T06:06:04.317Z,12.42
2017-05-26T06:07:18.432Z,12.44
2017-05-26T06:08:32.602Z,12.52
2017-05-26T06:09:46.846Z,12.57
2017-05-26T06:11:02.396Z,12.48
2017-05-26T06:12:17.880Z,12.56
2017-05-26T06:13:32.970Z,12.55
2017-05-26T06:14:48.717Z,12.53
2017-05-26T06:16:04.521Z,12.55
2017-05-26T06:17:18.728Z,12.55
2017-05-26T06:18:34.209Z,12.56
2017-05-26T06:19:49.996Z,12.52
2017-05-26T06:21:03.995Z,12.55
2017-05-26T06:22:19.658Z,12.56
2017-05-26T06:23:35.243Z,12.62
2017-05-26T06:24:50.893Z,12.62
2017-05-26T06:26:06.381Z,12.62
2017-05-26T06:27:20.294Z,12.78
2017-05-26T06:28:35.773Z,12.8
2017-05-26T06:29:51.413Z,12.81
2017-05-26T06:31:07.120Z,12.81
2017-05-26T06:32:21.253Z,12.81
2017-05-26T06:33:36.681Z,12.82
2017-05-26T06:34:50.865Z,12.89
2017-05-26T06:36:06.530Z,12.96
2017-05-26T06:37:21.985Z,12.97
2017-05-26T06:38:37.401Z,13.03
2017-05-26T06:39:51.572Z,13
2017-05-26T06:41:07.213Z,13.06
2017-05-26T06:42:22.711Z,13.13
2017-05-26T06:43:38.157Z,13.15
2017-05-26T06:44:53.249Z,13.27
2017-05-26T06:46:08.927Z,13.31
2017-05-26T06:47:24.306Z,13.38
2017-05-26T06:48:39.988Z,13.37
2017-05-26T06:49:55.751Z,13.51
2017-05-26T06:51:42.296Z,13.58
2017-05-26T06:52:58.009Z,13.61
2017-05-26T06:54:13.496Z,13.67
2017-05-26T06:55:27.621Z,13.73
2017-05-26T06:56:42.002Z,13.81
2017-05-26T06:57:56.093Z,13.82
2017-05-26T06:59:10.246Z,13.86
2017-05-26T07:00:24.561Z,13.81
2017-05-26T07:01:40.242Z,13.89
2017-05-26T07:02:54.339Z,13.99
2017-05-26T07:04:09.828Z,14.02
2017-05-26T07:05:25.308Z,14.11
2017-05-26T07:06:41.293Z,14.07
2017-05-26T07:07:57.120Z,14.22
2017-05-26T07:09:12.584Z,14.25
2017-05-26T07:10:26.691Z,14.24
2017-05-26T07:11:42.483Z,14.37
2017-05-26T07:12:56.620Z,14.51
2017-05-26T07:14:12.076Z,14.58
2017-05-26T07:15:26.262Z,14.67
2017-05-26T07:16:41.954Z,14.62
2017-05-26T07:17:57.324Z,14.7
2017-05-26T07:19:11.290Z,14.81
2017-05-26T07:20:26.831Z,14.96
2017-05-26T07:21:42.444Z,15.08
2017-05-26T07:22:56.295Z,15.17
2017-05-26T07:24:11.417Z,15.18
2017-05-26T07:25:25.562Z,15.35
2017-05-26T07:26:41.231Z,15.3
2017-05-26T07:27:56.603Z,15.4
2017-05-26T07:29:12.046Z,15.45
2017-05-26T07:30:26.097Z,15.55
2017-05-26T07:31:40.237Z,15.63
2017-05-26T07:32:55.892Z,15.73
2017-05-26T07:34:11.300Z,15.87
2017-05-26T07:35:26.743Z,15.7
2017-05-26T07:36:40.873Z,15.64
2017-05-26T07:37:56.529Z,15.84
2017-05-26T07:39:12.265Z,15.84
2017-05-26T07:40:27.745Z,15.82
2017-05-26T07:41:43.237Z,15.96
2017-05-26T07:42:57.594Z,15.98
2017-05-26T07:44:13.056Z,16.19
2017-05-26T07:45:27.194Z,16.21
2017-05-26T07:46:42.664Z,16.28
2017-05-26T07:47:58.391Z,16.34
2017-05-26T07:49:13.856Z,16.42
2017-05-26T07:50:28.275Z,16.27
2017-05-26T07:51:43.732Z,16.36
2017-05-26T07:52:59.389Z,16.38
2017-05-26T07:54:13.537Z,16.36
2017-05-26T07:55:27.587Z,16.43
2017-05-26T07:56:43.016Z,16.38
2017-05-26T07:57:59.053Z,16.35
2017-05-26T07:59:13.084Z,16.29
2017-05-26T08:00:28.536Z,16.25
2017-05-26T08:01:42.518Z,16.17
2017-05-26T08:02:56.835Z,16.17
2017-05-26T08:04:12.481Z,16.17
2017-05-26T08:05:28.043Z,16.13
2017-05-26T08:06:43.543Z,16.09
2017-05-26T08:07:59.365Z,16.13
2017-05-26T08:09:13.510Z,16.04
2017-05-26T08:10:26.385Z,16.11
2017-05-26T08:11:41.838Z,16.11
2017-05-26T08:12:54.559Z,16.11
2017-05-26T08:14:10.432Z,16.19
2017-05-26T08:15:25.920Z,16.28
2017-05-26T08:16:41.422Z,16.29
2017-05-26T08:17:55.576Z,16.46
2017-05-26T08:19:11.191Z,16.43
2017-05-26T08:20:26.993Z,16.5
2017-05-26T08:21:42.461Z,16.54
2017-05-26T08:22:56.637Z,16.57
2017-05-26T08:24:12.284Z,16.66
2017-05-26T08:25:27.824Z,16.72
2017-05-26T08:26:41.882Z,16.72
2017-05-26T08:27:55.924Z,16.87
2017-05-26T08:29:11.847Z,16.91
2017-05-26T08:30:25.990Z,17.02
2017-05-26T08:31:41.550Z,16.98
2017-05-26T08:32:55.689Z,17.02
2017-05-26T08:34:11.526Z,17.19
2017-05-26T08:35:26.986Z,17.24
2017-05-26T08:36:42.444Z,17.43
2017-05-26T08:37:57.927Z,17.45
2017-05-26T08:39:12.333Z,17.62
2017-05-26T08:40:26.496Z,17.73
2017-05-26T08:41:41.964Z,18
2017-05-26T08:42:57.444Z,18.15
2017-05-26T08:44:10.478Z,18.32
2017-05-26T08:45:25.996Z,18.57
2017-05-26T08:46:41.396Z,19.15
2017-05-26T08:47:56.905Z,19.83
2017-05-26T08:49:12.575Z,20.61
2017-05-26T08:50:26.950Z,21.33
2017-05-26T08:51:42.372Z,22.09
2017-05-26T08:52:57.845Z,22.78
2017-05-26T08:54:13.651Z,23.43
2017-05-26T08:55:29.074Z,23.9
2017-05-26T08:56:44.719Z,24.29
2017-05-26T08:58:00.217Z,24.67
2017-05-26T08:59:14.599Z,25
2017-05-26T09:00:30.083Z,25.07
2017-05-26T09:01:44.198Z,25.15
2017-05-26T09:02:59.949Z,25.29
2017-05-26T09:04:15.599Z,25.55
2017-05-26T09:05:29.765Z,25.28
2017-05-26T09:06:44.090Z,25.25
2017-05-26T09:07:59.590Z,25.27
2017-05-26T09:09:15.007Z,25.29
2017-05-26T09:10:30.665Z,25.52
2017-05-26T09:11:44.754Z,25.62
2017-05-26T09:12:58.897Z,25.69
2017-05-26T09:14:14.331Z,25.78
2017-05-26T09:15:29.990Z,25.97
2017-05-26T09:16:45.075Z,26.21
2017-05-26T09:18:00.577Z,26.37
2017-05-26T09:19:14.732Z,26.51
2017-05-26T09:20:30.635Z,26.74
2017-05-26T09:21:46.160Z,26.96
2017-05-26T09:23:01.637Z,27.42
2017-05-26T09:24:17.101Z,27.41
2017-05-26T09:25:33.050Z,27.49
2017-05-26T09:26:48.528Z,27.76
2017-05-26T09:28:04.010Z,27.92
2017-05-26T09:29:19.487Z,27.82
2017-05-26T09:30:35.129Z,27.85
2017-05-26T09:31:50.587Z,27.9
2017-05-26T09:33:06.076Z,28.19
2017-05-26T09:34:21.520Z,28.51
2017-05-26T09:35:35.887Z,28.56
2017-05-26T09:36:51.043Z,28.41
2017-05-26T09:38:06.592Z,28.41
2017-05-26T09:39:22.051Z,28.45
2017-05-26T09:40:37.766Z,28.44
2017-05-26T09:41:53.298Z,28.38
2017-05-26T09:43:08.806Z,28.38
2017-05-26T09:44:24.239Z,28.67
2017-05-26T09:45:40.264Z,28.95
2017-05-26T09:46:54.473Z,29.06
2017-05-26T09:48:09.983Z,29.07
2017-05-26T09:49:24.283Z,29.16
2017-05-26T09:50:39.944Z,29.43
2017-05-26T09:51:55.015Z,29.6
2017-05-26T09:53:10.588Z,29.58
2017-05-26T09:54:24.657Z,29.51
2017-05-26T09:55:40.348Z,29.39
2017-05-26T09:56:55.873Z,29.54
2017-05-26T09:58:11.574Z,29.66
2017-05-26T09:59:27.103Z,29.66
2017-05-26T10:00:42.800Z,29.5
2017-05-26T10:01:56.876Z,29.43
2017-05-26T10:03:12.450Z,29.29
2017-05-26T10:04:27.536Z,29.32
2017-05-26T10:05:40.636Z,29.1
2017-05-26T10:06:56.117Z,29.02
2017-05-26T10:08:11.695Z,28.87
2017-05-26T10:09:27.232Z,28.69
2017-05-26T10:10:41.645Z,28.45
2017-05-26T10:11:57.050Z,28.39
2017-05-26T10:13:12.535Z,28.2
2017-05-26T10:14:28.105Z,28.24
2017-05-26T10:15:43.834Z,28.29
2017-05-26T10:16:59.324Z,28.42
2017-05-26T10:18:15.058Z,28.54
2017-05-26T10:19:30.818Z,28.7
2017-05-26T10:20:45.110Z,28.72
2017-05-26T10:22:00.759Z,28.51
2017-05-26T10:23:16.227Z,28.35
2017-05-26T10:24:31.671Z,28.19
2017-05-26T10:25:47.600Z,27.98
2017-05-26T10:27:03.095Z,27.83
2017-05-26T10:28:18.583Z,27.71
2017-05-26T10:29:34.293Z,27.65
2017-05-26T10:30:48.702Z,27.67
2017-05-26T10:32:01.475Z,27.63
2017-05-26T10:33:17.222Z,27.61
2017-05-26T10:34:32.707Z,27.65
2017-05-26T10:35:47.029Z,27.97
2017-05-26T10:37:02.580Z,28.07
2017-05-26T10:38:18.127Z,27.95
2017-05-26T10:39:33.735Z,27.95
2017-05-26T10:40:48.199Z,27.92
2017-05-26T10:42:02.388Z,28.01
2017-05-26T10:43:16.585Z,28.26
2017-05-26T10:44:32.136Z,28.32
2017-05-26T10:45:47.296Z,28.22
2017-05-26T10:47:03.408Z,28.2
2017-05-26T10:48:19.136Z,28.14
2017-05-26T10:49:34.925Z,28.11
2017-05-26T10:50:49.185Z,28.11
2017-05-26T10:52:04.846Z,28.2
2017-05-26T10:53:20.346Z,28.32
2017-05-26T10:54:34.547Z,28.26
2017-05-26T10:55:49.940Z,28.29
2017-05-26T10:57:05.744Z,28.31
2017-05-26T10:58:19.783Z,28.27
2017-05-26T10:59:35.315Z,28.11
2017-05-26T11:00:50.779Z,27.98
2017-05-26T11:02:06.502Z,28.04
2017-05-26T11:03:22.030Z,27.89
2017-05-26T11:04:36.164Z,27.76
2017-05-26T11:05:51.727Z,27.87
2017-05-26T11:07:07.875Z,27.65
2017-05-26T11:08:23.326Z,27.65
2017-05-26T11:09:37.490Z,27.7
2017-05-26T11:10:51.646Z,27.68
2017-05-26T11:12:07.335Z,27.98
2017-05-26T11:13:23.181Z,27.86
2017-05-26T11:14:38.699Z,27.86
2017-05-26T11:15:54.175Z,27.74
2017-05-26T11:17:09.548Z,27.79
2017-05-26T11:18:24.693Z,27.83
2017-05-26T11:19:40.226Z,27.87
2017-05-26T11:20:55.666Z,27.95
2017-05-26T11:22:11.028Z,27.86
2017-05-26T11:23:26.478Z,27.7
2017-05-26T11:24:41.958Z,27.67
2017-05-26T11:25:57.393Z,27.65
2017-05-26T11:27:11.821Z,27.57
2017-05-26T11:28:27.484Z,27.43
2017-05-26T11:29:43.000Z,27.37
2017-05-26T11:30:58.464Z,27.27
2017-05-26T11:32:14.166Z,27.27
2017-05-26T11:33:29.797Z,27.15
2017-05-26T11:34:45.258Z,27.14
2017-05-26T11:36:00.830Z,27.14
2017-05-26T11:37:16.690Z,27.1
2017-05-26T11:38:32.206Z,27.26
2017-05-26T11:39:46.391Z,27.26
2017-05-26T11:40:59.101Z,27.42
2017-05-26T11:42:14.900Z,27.53
2017-05-26T11:43:30.446Z,27.63
2017-05-26T11:44:45.889Z,27.48
2017-05-26T11:46:01.467Z,27.39
2017-05-26T11:47:15.802Z,27.41
2017-05-26T11:48:31.297Z,27.39
2017-05-26T11:49:46.806Z,27.34
2017-05-26T11:51:02.287Z,27.41
2017-05-26T11:52:17.995Z,27.34
2017-05-26T11:53:33.452Z,27.43
2017-05-26T11:54:48.989Z,27.68
2017-05-26T11:56:04.523Z,27.68
2017-05-26T11:57:20.270Z,27.83
2017-05-26T11:58:35.812Z,27.83
2017-05-26T11:59:51.658Z,27.87
2017-05-26T12:01:07.141Z,27.85
2017-05-26T12:02:23.508Z,27.83
2017-05-26T12:03:38.938Z,27.64
2017-05-26T12:04:54.454Z,27.45
2017-05-26T12:06:09.873Z,27.24
2017-05-26T12:07:25.512Z,27.24
2017-05-26T12:08:40.996Z,27.15
2017-05-26T12:09:55.149Z,27.08
2017-05-26T12:11:10.720Z,27.08
2017-05-26T12:12:25.100Z,27.19
2017-05-26T12:13:39.292Z,26.98
2017-05-26T12:14:54.771Z,27.11
2017-05-26T12:16:10.573Z,27.07
2017-05-26T12:17:26.259Z,27.15
2017-05-26T12:18:40.816Z,27.04
2017-05-26T12:19:54.969Z,26.95
2017-05-26T12:21:10.480Z,26.89
2017-05-26T12:22:57.037Z,26.8
2017-05-26T12:24:12.474Z,26.75
2017-05-26T12:25:28.241Z,26.56
2017-05-26T12:26:43.850Z,26.51
2017-05-26T12:27:59.592Z,26.41
2017-05-26T12:29:13.606Z,26.36
2017-05-26T12:30:29.076Z,26.36
2017-05-26T12:31:43.258Z,26.49
2017-05-26T12:32:57.700Z,26.49
2017-05-26T12:34:13.156Z,26.52
2017-05-26T12:35:28.726Z,26.49
2017-05-26T12:36:44.183Z,26.43
2017-05-26T12:37:59.805Z,26.39
2017-05-26T12:39:14.420Z,26.31
2017-05-26T12:40:29.872Z,26.21
2017-05-26T12:41:45.313Z,25.99
2017-05-26T12:43:01.062Z,25.92
2017-05-26T12:44:15.287Z,25.85
2017-05-26T12:45:30.807Z,25.71
2017-05-26T12:46:46.314Z,25.66
2017-05-26T12:48:01.969Z,25.62
2017-05-26T12:49:17.467Z,25.52
2017-05-26T12:50:32.958Z,25.46
2017-05-26T12:51:48.420Z,25.25
2017-05-26T12:53:04.133Z,25.31
2017-05-26T12:54:19.650Z,25.15
2017-05-26T12:55:35.154Z,25.17
2017-05-26T12:56:50.789Z,25.05
2017-05-26T12:58:05.216Z,24.99
2017-05-26T12:59:20.783Z,24.9
2017-05-26T13:00:35.236Z,24.78
2017-05-26T13:01:51.292Z,24.8
2017-05-26T13:03:05.704Z,24.85
2017-05-26T13:04:21.230Z,24.78
2017-05-26T13:05:36.739Z,24.82
2017-05-26T13:06:52.246Z,24.87
2017-05-26T13:08:06.687Z,24.87
2017-05-26T13:09:22.253Z,24.9
2017-05-26T13:10:37.937Z,24.82
2017-05-26T13:11:52.098Z,24.85
2017-05-26T13:13:06.475Z,24.88
2017-05-26T13:14:21.933Z,24.81
2017-05-26T13:15:37.398Z,24.85
2017-05-26T13:16:51.480Z,24.78
2017-05-26T13:18:07.119Z,24.81
2017-05-26T13:19:22.636Z,24.75
2017-05-26T13:20:38.141Z,24.76
2017-05-26T13:21:53.960Z,24.7
2017-05-26T13:23:09.646Z,24.69
2017-05-26T13:24:25.170Z,24.67
2017-05-26T13:25:40.980Z,24.57
2017-05-26T13:26:56.069Z,24.55
2017-05-26T13:28:11.792Z,24.51
2017-05-26T13:29:27.416Z,24.63
2017-05-26T13:30:42.921Z,24.62
2017-05-26T13:31:58.414Z,24.57
2017-05-26T13:33:12.884Z,24.62
2017-05-26T13:34:27.020Z,24.57
2017-05-26T13:35:41.080Z,24.58
2017-05-26T13:36:55.302Z,24.63
2017-05-26T13:38:10.822Z,24.65
2017-05-26T13:39:26.516Z,24.43
2017-05-26T13:40:41.997Z,24.35
2017-05-26T13:41:57.493Z,24.45
2017-05-26T13:43:12.993Z,24.39
2017-05-26T13:44:28.783Z,24.35
2017-05-26T13:45:44.517Z,24.32
2017-05-26T13:47:00.022Z,24.43
2017-05-26T13:48:15.521Z,24.35
2017-05-26T13:49:29.929Z,24.22
2017-05-26T13:50:45.367Z,24.25
2017-05-26T13:51:59.493Z,24.13
2017-05-26T13:53:14.991Z,24.16
2017-05-26T13:54:30.701Z,24.2
2017-05-26T13:55:44.786Z,24.27
2017-05-26T13:57:00.264Z,24.25
2017-05-26T13:58:14.394Z,24.32
2017-05-26T13:59:30.048Z,24.34
2017-05-26T14:00:45.507Z,24.4
2017-05-26T14:02:00.937Z,24.29
2017-05-26T14:03:16.729Z,24.25
2017-05-26T14:04:32.428Z,24.25
2017-05-26T14:05:48.035Z,24.22
2017-05-26T14:07:03.460Z,24.24
2017-05-26T14:08:18.927Z,24.28
2017-05-26T14:09:34.547Z,24.24
2017-05-26T14:10:50.054Z,24.38
2017-05-26T14:12:05.573Z,24.35
2017-05-26T14:13:21.028Z,24.28
2017-05-26T14:14:35.222Z,24.31
2017-05-26T14:15:50.685Z,24.28
2017-05-26T14:17:06.223Z,24.17
2017-05-26T14:18:21.738Z,24.24
2017-05-26T14:19:37.411Z,24.32
2017-05-26T14:20:51.602Z,24.32
2017-05-26T14:22:07.091Z,24.32
2017-05-26T14:23:22.622Z,24.35
2017-05-26T14:24:37.045Z,24.34
2017-05-26T14:25:52.541Z,24.34
2017-05-26T14:27:07.995Z,24.34
2017-05-26T14:28:23.485Z,24.29
2017-05-26T14:29:39.214Z,24.34
2017-05-26T14:30:53.345Z,24.34
2017-05-26T14:32:08.815Z,24.31
2017-05-26T14:33:24.286Z,24.16
2017-05-26T14:34:38.525Z,24.07
2017-05-26T14:35:53.973Z,24.01
2017-05-26T14:37:09.486Z,23.98
2017-05-26T14:38:23.658Z,23.94
2017-05-26T14:39:39.427Z,23.77
2017-05-26T14:40:54.944Z,23.82
2017-05-26T14:42:10.554Z,23.77
2017-05-26T14:43:26.096Z,23.79
2017-05-26T14:44:41.722Z,23.8
2017-05-26T14:45:57.198Z,23.91
2017-05-26T14:47:12.997Z,24
2017-05-26T14:48:28.484Z,24.01
2017-05-26T14:49:41.596Z,24.06
2017-05-26T14:50:57.190Z,24.1
2017-05-26T14:52:12.607Z,24.07
2017-05-26T14:53:28.100Z,24.09
2017-05-26T14:54:43.893Z,24.19
2017-05-26T14:55:59.323Z,24.2
2017-05-26T14:57:13.597Z,24.19
2017-05-26T14:58:29.369Z,24.1
2017-05-26T14:59:43.580Z,24.09
2017-05-26T15:00:59.380Z,24.12
2017-05-26T15:02:13.578Z,24.07
2017-05-26T15:03:29.273Z,24.12
2017-05-26T15:04:44.358Z,24.09
2017-05-26T15:05:58.718Z,24.09
2017-05-26T15:07:14.136Z,24.09
2017-05-26T15:08:29.607Z,24.09
2017-05-26T15:09:45.092Z,24.01
2017-05-26T15:11:01.043Z,24.06
2017-05-26T15:12:16.509Z,24.1
2017-05-26T15:13:32.337Z,24.09
2017-05-26T15:14:46.465Z,24.09
2017-05-26T15:16:00.840Z,24.09
2017-05-26T15:17:16.311Z,24.06
2017-05-26T15:18:31.443Z,24.05
2017-05-26T15:19:46.863Z,24.07
2017-05-26T15:21:02.568Z,24.07
2017-05-26T15:22:18.075Z,24.05
2017-05-26T15:23:32.120Z,24.07
2017-05-26T15:24:47.594Z,24.09
2017-05-26T15:26:03.251Z,24.1
2017-05-26T15:27:18.784Z,24.05
2017-05-26T15:28:34.302Z,24.09
2017-05-26T15:29:49.710Z,24
2017-05-26T15:31:05.366Z,24.06
2017-05-26T15:32:20.883Z,24.07
2017-05-26T15:33:35.104Z,24.07
2017-05-26T15:34:50.261Z,23.97
2017-05-26T15:36:05.929Z,24.07
2017-05-26T15:37:21.396Z,24.01
2017-05-26T15:38:36.875Z,24.06
2017-05-26T15:39:52.313Z,24.05
2017-05-26T15:41:07.888Z,24.02
2017-05-26T15:42:23.387Z,23.98
2017-05-26T15:43:39.271Z,23.95
2017-05-26T15:44:53.324Z,23.97
2017-05-26T15:46:08.961Z,23.87
2017-05-26T15:47:24.499Z,23.91
2017-05-26T15:48:40.035Z,23.91
2017-05-26T15:49:55.394Z,23.92
2017-05-26T15:51:09.813Z,23.97
2017-05-26T15:52:23.950Z,23.97
2017-05-26T15:53:39.409Z,23.94
2017-05-26T15:54:55.324Z,23.92
2017-05-26T15:56:10.697Z,23.88
2017-05-26T15:57:24.820Z,23.98
2017-05-26T15:58:40.244Z,24.01
2017-05-26T15:59:54.446Z,24.07
2017-05-26T16:01:10.175Z,24
2017-05-26T16:02:25.575Z,24.05
2017-05-26T16:03:41.085Z,24.06
2017-05-26T16:04:57.153Z,24.02
2017-05-26T16:06:13.415Z,24.06
2017-05-26T16:07:27.638Z,23.95
2017-05-26T16:08:42.863Z,24.01
2017-05-26T16:09:54.257Z,24.07
2017-05-26T16:11:09.958Z,24